createdAt,value
2018-11-03T00:00:46.462Z,5.83
2018-11-03T00:03:13.410Z,6.05
2018-11-03T00:05:40.377Z,6.12
2018-11-03T00:08:07.333Z,7.33
2018-11-03T00:10:34.274Z,6.97
2018-11-03T00:13:01.198Z,7.00
2018-11-03T00:15:28.142Z,7.70
2018-11-03T00:17:55.087Z,7.40
2018-11-03T00:20:22.140Z,7.33
2018-11-03T00:22:49.079Z,6.67
2018-11-03T00:25:16.016Z,6.90
2018-11-03T00:27:42.949Z,7.00
2018-11-03T00:30:11.661Z,6.60
2018-11-03T00:32:38.591Z,6.92
2018-11-03T00:35:05.542Z,6.50
2018-11-03T00:37:32.598Z,6.80
2018-11-03T00:39:59.547Z,6.92
2018-11-03T00:42:26.691Z,6.47
2018-11-03T00:44:53.664Z,7.40
2018-11-03T00:47:20.595Z,6.70
2018-11-03T00:49:47.530Z,6.95
2018-11-03T00:52:14.469Z,7.17
2018-11-03T00:54:41.397Z,7.60
2018-11-03T00:57:08.377Z,7.87
2018-11-03T00:59:35.329Z,8.03
2018-11-03T01:02:02.312Z,8.30
2018-11-03T01:04:29.247Z,8.30
2018-11-03T01:06:56.350Z,9.70
2018-11-03T01:09:23.521Z,9.00
2018-11-03T01:11:50.456Z,8.13
2018-11-03T01:14:17.417Z,7.62
2018-11-03T01:16:44.348Z,6.95
2018-11-03T01:19:11.304Z,6.90
2018-11-03T01:21:38.230Z,8.80
2018-11-03T01:24:05.420Z,7.45
2018-11-03T01:26:32.366Z,7.70
2018-11-03T01:28:59.289Z,7.45
2018-11-03T01:31:26.266Z,7.53
2018-11-03T01:33:53.185Z,8.53
2018-11-03T01:36:20.130Z,8.00
2018-11-03T01:38:47.046Z,7.53
2018-11-03T01:41:13.968Z,8.18
2018-11-03T01:43:40.906Z,8.68
2018-11-03T01:46:07.836Z,8.53
2018-11-03T01:48:34.774Z,8.80
2018-11-03T01:51:01.686Z,8.90
2018-11-03T01:53:28.617Z,8.60
2018-11-03T01:55:55.553Z,8.75
2018-11-03T01:58:22.484Z,8.53
2018-11-03T02:00:49.409Z,9.58
2018-11-03T02:03:16.337Z,8.78
2018-11-03T02:05:43.282Z,9.43
2018-11-03T02:08:10.208Z,9.25
2018-11-03T02:10:37.150Z,10.35
2018-11-03T02:13:04.102Z,9.43
2018-11-03T02:15:31.042Z,9.60
2018-11-03T02:17:57.960Z,9.20
2018-11-03T02:20:24.884Z,9.83
2018-11-03T02:22:51.839Z,10.08
2018-11-03T02:25:18.772Z,10.35
2018-11-03T02:27:45.702Z,10.95
2018-11-03T02:30:12.633Z,9.63
2018-11-03T02:32:39.728Z,11.70
2018-11-03T02:35:07.688Z,10.48
2018-11-03T02:37:34.613Z,10.43
2018-11-03T02:40:01.629Z,11.18
2018-11-03T02:42:28.575Z,10.48
2018-11-03T02:44:55.488Z,10.63
2018-11-03T02:47:22.433Z,11.28
2018-11-03T02:49:49.364Z,11.55
2018-11-03T02:52:16.282Z,11.45
2018-11-03T02:54:43.214Z,11.38
2018-11-03T02:57:10.159Z,10.40
2018-11-03T02:59:37.090Z,10.88
2018-11-03T03:02:04.374Z,10.35
2018-11-03T03:04:31.270Z,9.40
2018-11-03T03:06:58.218Z,10.18
2018-11-03T03:09:25.237Z,9.23
2018-11-03T03:11:52.169Z,9.70
2018-11-03T03:14:19.081Z,9.83
2018-11-03T03:16:46.018Z,9.63
2018-11-03T03:19:13.398Z,10.30
2018-11-03T03:21:40.343Z,9.40
2018-11-03T03:24:07.265Z,10.65
2018-11-03T03:26:34.193Z,10.82
2018-11-03T03:29:01.176Z,10.68
2018-11-03T03:31:28.047Z,10.75
2018-11-03T03:33:54.987Z,10.30
2018-11-03T03:36:21.941Z,10.68
2018-11-03T03:38:48.869Z,9.85
2018-11-03T03:41:15.787Z,9.38
2018-11-03T03:43:42.821Z,10.00
2018-11-03T03:46:09.741Z,10.70
2018-11-03T03:48:36.683Z,10.25
2018-11-03T03:51:03.616Z,10.28
2018-11-03T03:53:30.543Z,10.45
2018-11-03T03:55:57.472Z,11.45
2018-11-03T03:58:24.466Z,11.03
2018-11-03T04:00:51.406Z,10.50
2018-11-03T04:03:18.356Z,10.45
2018-11-03T04:05:45.338Z,10.82
2018-11-03T04:08:12.307Z,12.47
2018-11-03T04:10:39.234Z,11.68
2018-11-03T04:13:12.841Z,12.03
2018-11-03T04:15:39.777Z,12.25
2018-11-03T04:18:06.698Z,10.72
2018-11-03T04:20:33.631Z,11.40
2018-11-03T04:23:00.590Z,13.35
2018-11-03T04:25:27.510Z,12.20
2018-11-03T04:27:54.449Z,12.07
2018-11-03T04:30:21.370Z,13.13
2018-11-03T04:32:48.294Z,10.95
2018-11-03T04:35:15.222Z,12.03
2018-11-03T04:37:42.159Z,11.45
2018-11-03T04:40:10.708Z,12.47
2018-11-03T04:42:37.869Z,11.97
2018-11-03T04:45:05.577Z,11.53
2018-11-03T04:47:32.498Z,11.75
2018-11-03T04:49:59.431Z,11.35
2018-11-03T04:52:26.352Z,12.13
2018-11-03T04:54:53.338Z,11.40
2018-11-03T04:57:20.216Z,11.28
2018-11-03T04:59:47.181Z,12.88
2018-11-03T05:02:14.486Z,12.73
2018-11-03T05:04:41.442Z,13.75
2018-11-03T05:07:08.345Z,13.13
2018-11-03T05:09:35.240Z,12.47
2018-11-03T05:12:02.157Z,13.75
2018-11-03T05:14:29.200Z,14.23
2018-11-03T05:16:56.133Z,13.90
2018-11-03T05:19:23.056Z,14.00
2018-11-03T05:21:49.957Z,15.55
2018-11-03T05:24:16.868Z,16.40
2018-11-03T05:26:43.808Z,18.00
2018-11-03T05:29:10.736Z,15.25
2018-11-03T05:31:44.627Z,17.50
2018-11-03T05:34:11.598Z,16.40
2018-11-03T05:36:38.492Z,16.65
2018-11-03T05:39:07.379Z,17.45
2018-11-03T05:41:34.297Z,17.07
2018-11-03T05:44:01.206Z,17.57
2018-11-03T05:46:28.193Z,17.77
2018-11-03T05:48:55.114Z,19.02
2018-11-03T05:51:22.041Z,19.55
2018-11-03T05:53:48.960Z,23.60
2018-11-03T05:56:15.885Z,18.85
2018-11-03T06:01:16.394Z,18.55
2018-11-03T06:03:43.282Z,15.95
2018-11-03T06:06:10.232Z,16.15
2018-11-03T06:08:37.157Z,17.02
2018-11-03T06:11:04.553Z,17.23
2018-11-03T06:13:31.461Z,16.73
2018-11-03T06:15:58.442Z,15.85
2018-11-03T06:18:25.339Z,17.02
2018-11-03T06:20:52.248Z,17.12
2018-11-03T06:23:19.231Z,15.28
2018-11-03T06:25:46.101Z,16.95
2018-11-03T06:28:13.134Z,16.10
2018-11-03T06:30:39.976Z,18.40
2018-11-03T06:33:06.880Z,17.20
2018-11-03T06:35:33.801Z,20.57
2018-11-03T06:38:00.692Z,18.55
2018-11-03T06:40:27.607Z,21.02
2018-11-03T06:42:54.515Z,21.00
2018-11-03T06:45:21.424Z,18.55
2018-11-03T06:47:48.720Z,20.32
2018-11-03T06:50:15.629Z,21.70
2018-11-03T06:52:42.544Z,19.37
2018-11-03T06:55:09.517Z,21.48
2018-11-03T06:57:36.448Z,22.17
2018-11-03T07:00:04.630Z,19.80
2018-11-03T07:02:31.540Z,18.92
2018-11-03T07:04:58.463Z,18.10
2018-11-03T07:07:25.374Z,19.15
2018-11-03T07:09:52.268Z,19.23
2018-11-03T07:12:19.303Z,17.30
2018-11-03T07:14:46.148Z,19.82
2018-11-03T07:17:13.098Z,18.50
2018-11-03T07:19:40.000Z,20.52
2018-11-03T07:22:06.922Z,20.92
2018-11-03T07:24:33.836Z,19.67
2018-11-03T07:27:00.749Z,21.05
2018-11-03T07:29:27.698Z,20.65
2018-11-03T07:31:54.627Z,21.07
2018-11-03T07:34:21.534Z,21.68
2018-11-03T07:36:48.466Z,19.50
2018-11-03T07:39:15.396Z,21.33
2018-11-03T07:41:42.441Z,20.82
2018-11-03T07:44:09.519Z,20.23
2018-11-03T07:46:36.454Z,19.65
2018-11-03T07:49:03.573Z,20.90
2018-11-03T07:51:30.325Z,21.15
2018-11-03T07:53:57.282Z,21.65
2018-11-03T07:56:24.204Z,19.62
2018-11-03T07:58:51.108Z,21.48
2018-11-03T08:01:18.054Z,20.12
2018-11-03T08:03:44.946Z,20.02
2018-11-03T08:06:11.892Z,20.90
2018-11-03T08:08:38.811Z,21.33
2018-11-03T08:11:05.701Z,19.50
2018-11-03T08:13:32.622Z,20.20
2018-11-03T08:15:59.529Z,19.92
2018-11-03T08:18:26.472Z,19.52
2018-11-03T08:20:53.448Z,20.05
2018-11-03T08:23:20.438Z,19.65
2018-11-03T08:25:47.434Z,18.62
2018-11-03T08:28:14.345Z,18.15
2018-11-03T08:30:41.255Z,20.92
2018-11-03T08:33:08.181Z,19.05
2018-11-03T08:35:35.100Z,19.40
2018-11-03T08:38:02.024Z,19.10
2018-11-03T08:40:28.967Z,17.50
2018-11-03T08:42:55.878Z,18.50
2018-11-03T08:45:22.836Z,19.37
2018-11-03T08:47:49.739Z,15.93
2018-11-03T08:50:16.714Z,16.90
2018-11-03T08:52:43.632Z,16.53
2018-11-03T08:55:11.816Z,15.73
2018-11-03T08:57:38.742Z,16.40
2018-11-03T09:00:09.283Z,15.90
2018-11-03T09:02:36.117Z,15.10
2018-11-03T09:05:03.060Z,14.90
2018-11-03T09:07:29.976Z,14.63
2018-11-03T09:09:56.940Z,14.47
2018-11-03T09:12:23.864Z,13.90
2018-11-03T09:14:50.802Z,14.23
2018-11-03T09:17:17.727Z,12.30
2018-11-03T09:19:44.682Z,12.40
2018-11-03T09:22:11.600Z,11.30
2018-11-03T09:24:38.784Z,12.50
2018-11-03T09:27:05.676Z,11.40
2018-11-03T09:29:32.592Z,11.77
2018-11-03T09:32:00.009Z,11.40
2018-11-03T09:34:26.907Z,10.67
2018-11-03T09:36:54.031Z,10.20
2018-11-03T09:39:21.018Z,10.03
2018-11-03T09:41:47.953Z,10.50
2018-11-03T09:44:14.916Z,9.47
2018-11-03T09:46:48.616Z,9.00
2018-11-03T09:49:16.591Z,8.87
2018-11-03T09:51:44.921Z,8.23
2018-11-03T09:54:11.973Z,7.83
2018-11-03T09:56:39.030Z,8.70
2018-11-03T09:59:05.848Z,7.90
2018-11-03T10:01:33.961Z,8.10
2018-11-03T10:04:00.879Z,8.27
2018-11-03T10:06:27.840Z,7.27
2018-11-03T10:08:54.826Z,7.50
2018-11-03T10:11:23.536Z,6.43
2018-11-03T10:13:50.456Z,7.60
2018-11-03T10:16:17.440Z,7.93
2018-11-03T10:18:44.384Z,6.77
2018-11-03T10:21:11.326Z,6.43
2018-11-03T10:23:38.234Z,6.67
2018-11-03T10:26:05.186Z,7.63
2018-11-03T10:28:32.159Z,7.20
2018-11-03T10:30:59.132Z,6.90
2018-11-03T10:33:26.164Z,6.70
2018-11-03T10:35:53.075Z,6.30
2018-11-03T10:38:20.011Z,7.03
2018-11-03T10:40:46.931Z,7.97
2018-11-03T10:43:14.434Z,6.17
2018-11-03T10:45:41.397Z,6.77
2018-11-03T10:48:08.529Z,5.10
2018-11-03T10:50:35.798Z,5.67
2018-11-03T10:53:02.781Z,5.80
2018-11-03T10:55:29.854Z,5.63
2018-11-03T10:57:56.841Z,5.47
2018-11-03T11:00:29.605Z,5.30
2018-11-03T11:03:02.251Z,5.63
2018-11-03T11:05:35.243Z,4.97
2018-11-03T11:08:07.997Z,5.67
2018-11-03T11:10:40.728Z,5.13
2018-11-03T11:13:11.032Z,4.70
2018-11-03T11:15:37.958Z,4.93
2018-11-03T11:18:05.173Z,4.63
2018-11-03T11:20:32.076Z,5.00
2018-11-03T11:22:58.988Z,4.23
2018-11-03T11:25:25.927Z,3.97
2018-11-03T11:27:52.852Z,3.87
2018-11-03T11:30:19.770Z,3.73
2018-11-03T11:32:46.793Z,3.20
2018-11-03T11:35:13.705Z,3.90
2018-11-03T11:37:40.733Z,3.60
2018-11-03T11:40:07.609Z,3.13
2018-11-03T11:42:34.512Z,3.60
2018-11-03T11:45:01.442Z,3.87
2018-11-03T11:47:28.424Z,3.97
2018-11-03T11:49:55.369Z,3.50
2018-11-03T11:52:22.355Z,3.10
2018-11-03T11:54:49.322Z,3.33
2018-11-03T11:57:16.194Z,3.40
2018-11-03T11:59:43.132Z,3.70
2018-11-03T12:02:10.236Z,3.47
2018-11-03T12:04:37.096Z,3.60
2018-11-03T12:07:04.067Z,3.30
2018-11-03T12:09:30.997Z,3.60
2018-11-03T12:11:57.929Z,3.27
2018-11-03T12:14:24.841Z,3.47
2018-11-03T12:16:51.809Z,3.87
2018-11-03T12:19:18.746Z,3.50
2018-11-03T12:21:45.641Z,3.47
2018-11-03T12:24:12.545Z,3.60
2018-11-03T12:26:39.489Z,3.27
2018-11-03T12:29:06.379Z,3.57
2018-11-03T12:34:07.021Z,3.60
2018-11-03T12:36:33.945Z,3.57
2018-11-03T12:39:00.885Z,3.37
2018-11-03T12:41:28.022Z,2.80
2018-11-03T12:43:54.776Z,3.10
2018-11-03T12:46:21.695Z,3.40
2018-11-03T12:48:48.643Z,2.63
2018-11-03T12:51:15.576Z,3.13
2018-11-03T12:53:42.505Z,2.83
2018-11-03T12:56:09.376Z,3.50
2018-11-03T12:58:36.294Z,2.93
2018-11-03T13:01:03.204Z,3.20
2018-11-03T13:03:30.106Z,3.20
2018-11-03T13:05:57.000Z,3.00
2018-11-03T13:08:23.962Z,3.13
2018-11-03T13:10:50.964Z,3.20
2018-11-03T13:13:17.901Z,3.27
2018-11-03T13:15:44.833Z,3.20
2018-11-03T13:18:11.709Z,2.97
2018-11-03T13:20:38.637Z,3.10
2018-11-03T13:23:05.546Z,2.90
2018-11-03T13:25:32.432Z,2.50
2018-11-03T13:27:59.354Z,3.50
2018-11-03T13:30:26.254Z,3.70
2018-11-03T13:32:53.157Z,2.90
2018-11-03T13:35:20.073Z,3.13
2018-11-03T13:37:47.226Z,3.57
2018-11-03T13:40:14.164Z,3.47
2018-11-03T13:42:41.486Z,4.13
2018-11-03T13:45:09.016Z,3.30
2018-11-03T13:47:36.821Z,3.10
2018-11-03T13:50:09.183Z,2.70
2018-11-03T13:52:36.124Z,2.73
2018-11-03T13:55:03.097Z,2.50
2018-11-03T13:57:29.989Z,2.93
2018-11-03T13:59:56.918Z,2.70
2018-11-03T14:02:23.833Z,3.20
2018-11-03T14:04:50.764Z,3.50
2018-11-03T14:07:17.676Z,4.43
2018-11-03T14:09:44.729Z,3.13
2018-11-03T14:12:11.634Z,3.10
2018-11-03T14:14:38.573Z,3.23
2018-11-03T14:17:05.622Z,3.30
2018-11-03T14:19:32.453Z,3.37
2018-11-03T14:21:59.426Z,3.30
2018-11-03T14:24:26.365Z,2.93
2018-11-03T14:26:53.317Z,2.93
2018-11-03T14:29:20.311Z,3.10
2018-11-03T14:31:47.164Z,2.97
2018-11-03T14:34:14.089Z,2.90
2018-11-03T14:36:41.013Z,2.93
2018-11-03T14:39:08.685Z,2.93
2018-11-03T14:41:35.671Z,2.87
2018-11-03T14:44:02.665Z,2.90
2018-11-03T14:46:29.624Z,3.43
2018-11-03T14:48:56.542Z,3.90
2018-11-03T14:51:23.501Z,4.00
2018-11-03T14:53:50.420Z,3.33
2018-11-03T14:56:17.318Z,3.10
2018-11-03T14:58:44.225Z,2.60
2018-11-03T15:01:11.137Z,3.10
2018-11-03T15:03:38.059Z,3.13
2018-11-03T15:06:05.027Z,3.53
2018-11-03T15:08:32.038Z,3.20
2018-11-03T15:10:58.931Z,2.90
2018-11-03T15:13:25.943Z,3.50
2018-11-03T15:15:52.799Z,3.60
2018-11-03T15:18:19.751Z,3.10
2018-11-03T15:20:46.682Z,3.47
2018-11-03T15:23:13.590Z,4.37
2018-11-03T15:25:40.509Z,3.83
2018-11-03T15:28:07.437Z,4.33
2018-11-03T15:30:34.345Z,4.07
2018-11-03T15:33:01.274Z,3.63
2018-11-03T15:35:28.176Z,4.20
2018-11-03T15:37:55.093Z,3.90
2018-11-03T15:40:22.021Z,4.30
2018-11-03T15:42:48.924Z,4.50
2018-11-03T15:45:16.937Z,4.77
2018-11-03T15:47:44.423Z,4.63
2018-11-03T15:50:12.450Z,4.47
2018-11-03T15:52:39.484Z,4.43
2018-11-03T15:55:06.674Z,5.10
2018-11-03T15:57:33.630Z,5.20
2018-11-03T16:00:00.694Z,5.13
2018-11-03T16:02:28.088Z,5.47
2018-11-03T16:04:55.042Z,5.17
2018-11-03T16:07:21.969Z,6.03
2018-11-03T16:09:48.857Z,6.00
2018-11-03T16:12:15.869Z,6.30
2018-11-03T16:14:42.696Z,6.77
2018-11-03T16:17:09.608Z,7.40
2018-11-03T16:19:36.612Z,8.13
2018-11-03T16:22:03.496Z,8.10
2018-11-03T16:24:30.429Z,8.43
2018-11-03T16:26:57.384Z,8.80
2018-11-03T16:29:30.970Z,7.93
2018-11-03T16:31:57.959Z,8.40
2018-11-03T16:34:24.820Z,7.80
2018-11-03T16:36:51.769Z,8.33
2018-11-03T16:39:18.664Z,8.33
2018-11-03T16:41:45.665Z,8.07
2018-11-03T16:44:12.586Z,7.27
2018-11-03T16:46:39.522Z,6.77
2018-11-03T16:49:06.553Z,6.67
2018-11-03T16:51:33.475Z,7.90
2018-11-03T16:54:00.393Z,7.43
2018-11-03T16:56:27.300Z,7.70
2018-11-03T16:58:54.223Z,7.60
2018-11-03T17:01:21.148Z,6.43
2018-11-03T17:03:48.060Z,6.50
2018-11-03T17:06:14.991Z,6.53
2018-11-03T17:08:41.872Z,6.07
2018-11-03T17:11:08.809Z,6.50
2018-11-03T17:13:35.724Z,6.37
2018-11-03T17:16:02.637Z,7.13
2018-11-03T17:18:29.588Z,7.50
2018-11-03T17:20:56.463Z,8.77
2018-11-03T17:23:23.427Z,8.87
2018-11-03T17:25:50.341Z,9.10
2018-11-03T17:28:17.230Z,9.07
2018-11-03T17:30:44.152Z,9.00
2018-11-03T17:33:17.717Z,8.20
2018-11-03T17:35:44.651Z,9.10
2018-11-03T17:38:11.585Z,9.13
2018-11-03T17:40:38.563Z,9.50
2018-11-03T17:43:05.503Z,10.50
2018-11-03T17:45:32.433Z,10.70
2018-11-03T17:47:59.365Z,10.47
2018-11-03T17:50:26.308Z,10.90
2018-11-03T17:52:53.236Z,11.70
2018-11-03T17:55:20.161Z,13.70
2018-11-03T17:57:47.118Z,14.33
2018-11-03T18:00:15.323Z,16.17
2018-11-03T18:02:43.242Z,17.93
2018-11-03T18:05:10.133Z,16.95
2018-11-03T18:07:37.167Z,16.80
2018-11-03T18:10:05.037Z,15.00
2018-11-03T18:12:31.929Z,14.90
2018-11-03T18:14:58.832Z,14.70
2018-11-03T18:17:25.745Z,14.20
2018-11-03T18:19:52.725Z,13.28
2018-11-03T18:22:19.608Z,12.58
2018-11-03T18:24:46.549Z,12.37
2018-11-03T18:27:13.469Z,11.73
2018-11-03T18:29:40.369Z,11.93
2018-11-03T18:32:07.301Z,12.18
2018-11-03T18:34:34.269Z,10.98
2018-11-03T18:37:01.197Z,10.10
2018-11-03T18:39:28.129Z,10.38
2018-11-03T18:41:55.040Z,9.43
2018-11-03T18:44:21.945Z,8.58
2018-11-03T18:46:48.940Z,9.05
2018-11-03T18:49:15.801Z,9.28
2018-11-03T18:51:42.775Z,9.45
2018-11-03T18:54:09.684Z,10.72
2018-11-03T18:56:36.630Z,10.98
2018-11-03T18:59:03.814Z,11.10
2018-11-03T19:01:30.749Z,11.30
2018-11-03T19:03:57.711Z,10.88
2018-11-03T19:06:24.642Z,12.23
2018-11-03T19:08:51.607Z,13.38
2018-11-03T19:11:18.545Z,15.98
2018-11-03T19:13:45.473Z,18.73
2018-11-03T19:16:12.604Z,21.80
2018-11-03T19:18:41.896Z,21.93
2018-11-03T19:21:09.069Z,24.07
2018-11-03T19:23:36.086Z,23.40
2018-11-03T19:26:02.917Z,21.62
2018-11-03T19:28:29.832Z,20.08
2018-11-03T19:30:56.761Z,22.05
2018-11-03T19:33:23.741Z,24.63
2018-11-03T19:35:50.653Z,19.30
2018-11-03T19:38:17.977Z,16.52
2018-11-03T19:40:44.966Z,15.13
2018-11-03T19:43:11.965Z,13.70
2018-11-03T19:45:38.904Z,12.98
2018-11-03T19:48:05.824Z,12.85
2018-11-03T19:50:32.757Z,14.23
2018-11-03T19:52:59.640Z,14.20
2018-11-03T19:55:26.615Z,13.35
2018-11-03T19:57:53.508Z,12.95
2018-11-03T20:00:20.532Z,14.10
2018-11-03T20:02:47.560Z,14.90
2018-11-03T20:05:14.384Z,13.22
2018-11-03T20:07:42.377Z,14.38
2018-11-03T20:10:09.458Z,14.28
2018-11-03T20:12:36.301Z,16.55
2018-11-03T20:15:03.977Z,16.55
2018-11-03T20:17:30.895Z,18.17
2018-11-03T20:19:57.997Z,19.25
2018-11-03T20:22:24.956Z,21.42
2018-11-03T20:24:51.872Z,22.25
2018-11-03T20:27:18.814Z,25.10
2018-11-03T20:29:45.744Z,23.83
2018-11-03T20:32:19.564Z,22.00
2018-11-03T20:34:46.487Z,22.50
2018-11-03T20:37:13.374Z,23.07
2018-11-03T20:39:40.288Z,21.35
2018-11-03T20:42:07.165Z,20.50
2018-11-03T20:44:34.072Z,16.80
2018-11-03T20:47:00.985Z,14.45
2018-11-03T20:49:27.874Z,14.30
2018-11-03T20:51:54.772Z,13.90
2018-11-03T20:54:21.664Z,14.00
2018-11-03T20:56:48.566Z,13.90
2018-11-03T20:59:15.451Z,12.90
2018-11-03T21:01:42.424Z,12.53
2018-11-03T21:04:09.265Z,12.25
2018-11-03T21:06:36.178Z,11.45
2018-11-03T21:09:03.989Z,11.93
2018-11-03T21:11:30.890Z,12.65
2018-11-03T21:13:57.785Z,12.73
2018-11-03T21:16:24.745Z,11.65
2018-11-03T21:18:51.707Z,11.53
2018-11-03T21:21:18.594Z,12.05
2018-11-03T21:23:45.506Z,11.20
2018-11-03T21:26:12.417Z,11.10
2018-11-03T21:28:39.328Z,12.55
2018-11-03T21:31:06.238Z,11.70
2018-11-03T21:33:33.137Z,11.05
2018-11-03T21:36:00.038Z,11.43
2018-11-03T21:38:26.938Z,11.83
2018-11-03T21:40:54.599Z,10.68
2018-11-03T21:43:21.495Z,13.22
2018-11-03T21:45:48.413Z,11.12
2018-11-03T21:48:15.344Z,10.82
2018-11-03T21:50:42.242Z,11.50
2018-11-03T21:53:09.149Z,11.22
2018-11-03T21:55:36.044Z,10.80
2018-11-03T21:58:02.968Z,11.40
2018-11-03T22:00:29.877Z,10.48
2018-11-03T22:02:56.794Z,11.15
2018-11-03T22:05:23.733Z,11.30
2018-11-03T22:07:50.693Z,11.35
2018-11-03T22:10:17.608Z,10.50
2018-11-03T22:12:44.535Z,10.23
2018-11-03T22:15:11.462Z,10.55
2018-11-03T22:17:38.361Z,10.10
2018-11-03T22:20:06.224Z,10.15
2018-11-03T22:22:33.157Z,9.98
2018-11-03T22:25:07.848Z,10.18
2018-11-03T22:27:35.208Z,10.82
2018-11-03T22:30:02.120Z,10.78
2018-11-03T22:32:29.061Z,10.75
2018-11-03T22:34:55.952Z,11.00
2018-11-03T22:37:23.062Z,12.43
2018-11-03T22:39:49.960Z,10.88
2018-11-03T22:42:16.998Z,11.80
2018-11-03T22:44:43.872Z,11.55
2018-11-03T22:47:11.105Z,11.08
2018-11-03T22:49:43.288Z,13.48
2018-11-03T22:52:10.321Z,10.85
2018-11-03T22:54:37.984Z,11.30
2018-11-03T22:57:04.981Z,11.45
2018-11-03T22:59:31.917Z,13.85
2018-11-03T23:01:59.018Z,14.25
2018-11-03T23:04:25.981Z,12.43
2018-11-03T23:06:52.976Z,12.65
2018-11-03T23:09:19.984Z,12.20
2018-11-03T23:11:47.028Z,12.37
2018-11-03T23:14:13.933Z,11.70
2018-11-03T23:16:40.822Z,11.18
2018-11-03T23:19:07.833Z,11.57
2018-11-03T23:21:34.752Z,12.05
2018-11-03T23:24:01.676Z,12.40
2018-11-03T23:26:28.592Z,12.80
2018-11-03T23:28:55.501Z,13.50
2018-11-03T23:31:22.376Z,13.53
2018-11-03T23:33:49.568Z,13.80
2018-11-03T23:36:16.451Z,14.28
2018-11-03T23:38:43.344Z,13.53
2018-11-03T23:41:10.303Z,13.83
2018-11-03T23:43:37.216Z,13.88
2018-11-03T23:46:04.456Z,13.72
2018-11-03T23:48:31.345Z,15.18
2018-11-03T23:50:58.244Z,14.00
2018-11-03T23:53:25.210Z,13.93
2018-11-03T23:55:52.064Z,13.62
2018-11-03T23:58:18.963Z,14.65
